createdAt,value
2023-05-10T00:00:18.968Z,12.61
2023-05-10T00:01:18.600Z,12.69
2023-05-10T00:02:18.585Z,12.59
2023-05-10T00:03:18.629Z,12.55
2023-05-10T00:04:18.588Z,12.59
2023-05-10T00:05:18.480Z,12.63
2023-05-10T00:06:18.470Z,12.63
2023-05-10T00:07:18.456Z,12.58
2023-05-10T00:08:18.395Z,12.66
2023-05-10T00:09:18.369Z,12.59
2023-05-10T00:10:18.482Z,12.63
2023-05-10T00:11:18.786Z,12.54
2023-05-10T00:12:18.301Z,12.49
2023-05-10T00:13:18.287Z,12.55
2023-05-10T00:14:18.236Z,12.55
2023-05-10T00:15:18.225Z,12.54
2023-05-10T00:16:18.253Z,12.66
2023-05-10T00:17:18.158Z,12.66
2023-05-10T00:18:18.132Z,12.61
2023-05-10T00:19:18.105Z,12.49
2023-05-10T00:20:18.360Z,12.51
2023-05-10T00:21:18.050Z,12.56
2023-05-10T00:22:18.046Z,12.56
2023-05-10T00:23:18.017Z,12.51
2023-05-10T00:24:17.994Z,12.52
2023-05-10T00:25:17.955Z,12.49
2023-05-10T00:26:17.943Z,12.51
2023-05-10T00:27:17.896Z,12.61
2023-05-10T00:28:17.870Z,12.58
2023-05-10T00:29:17.840Z,12.62
2023-05-10T00:30:18.034Z,12.58
2023-05-10T00:31:17.791Z,12.58
2023-05-10T00:32:17.782Z,12.61
2023-05-10T00:33:17.739Z,12.58
2023-05-10T00:34:17.710Z,12.55
2023-05-10T00:35:17.701Z,12.49
2023-05-10T00:36:17.659Z,12.51
2023-05-10T00:37:17.632Z,12.56
2023-05-10T00:38:17.640Z,12.58
2023-05-10T00:39:17.592Z,12.63
2023-05-10T00:40:17.894Z,12.61
2023-05-10T00:41:17.535Z,12.59
2023-05-10T00:42:17.499Z,12.58
2023-05-10T00:43:17.477Z,12.59
2023-05-10T00:44:17.458Z,12.70
2023-05-10T00:45:17.430Z,12.70
2023-05-10T00:46:17.417Z,12.63
2023-05-10T00:47:17.376Z,12.61
2023-05-10T00:48:17.346Z,12.73
2023-05-10T00:49:17.324Z,12.62
2023-05-10T00:50:17.597Z,12.56
2023-05-10T00:51:17.285Z,12.63
2023-05-10T00:52:17.241Z,12.55
2023-05-10T00:53:17.217Z,12.55
2023-05-10T00:54:17.209Z,12.63
2023-05-10T00:55:17.162Z,12.62
2023-05-10T00:56:17.140Z,12.51
2023-05-10T00:57:17.113Z,12.58
2023-05-10T00:58:17.087Z,12.61
2023-05-10T00:59:17.063Z,12.58
2023-05-10T01:00:17.238Z,12.63
2023-05-10T01:01:17.032Z,12.62
2023-05-10T01:02:17.049Z,12.62
2023-05-10T01:03:17.020Z,12.63
2023-05-10T01:04:16.940Z,12.69
2023-05-10T01:05:17.079Z,12.61
2023-05-10T01:06:16.885Z,12.66
2023-05-10T01:07:16.854Z,12.59
2023-05-10T01:08:16.832Z,12.54
2023-05-10T01:09:16.802Z,12.56
2023-05-10T01:10:17.101Z,12.56
2023-05-10T01:11:16.752Z,12.54
2023-05-10T01:12:16.747Z,12.49
2023-05-10T01:13:16.713Z,12.54
2023-05-10T01:14:16.671Z,12.54
2023-05-10T01:15:16.652Z,12.43
2023-05-10T01:16:16.655Z,12.43
2023-05-10T01:17:16.595Z,12.44
2023-05-10T01:18:16.582Z,12.49
2023-05-10T01:19:16.556Z,12.52
2023-05-10T01:20:16.689Z,12.49
2023-05-10T01:21:16.499Z,12.48
2023-05-10T01:22:16.467Z,12.46
2023-05-10T01:23:16.444Z,12.56
2023-05-10T01:24:16.415Z,12.58
2023-05-10T01:25:16.405Z,12.52
2023-05-10T01:26:16.565Z,12.48
2023-05-10T01:27:16.351Z,12.54
2023-05-10T01:28:16.308Z,12.59
2023-05-10T01:29:16.293Z,12.56
2023-05-10T01:30:16.450Z,12.56
2023-05-10T01:31:16.260Z,12.58
2023-05-10T01:32:16.211Z,12.62
2023-05-10T01:33:16.184Z,12.51
2023-05-10T01:34:16.155Z,12.61
2023-05-10T01:35:16.135Z,12.66
2023-05-10T01:36:16.103Z,12.59
2023-05-10T01:37:16.078Z,12.59
2023-05-10T01:38:16.082Z,12.63
2023-05-10T01:39:16.022Z,12.73
2023-05-10T01:40:16.366Z,12.56
2023-05-10T01:41:15.968Z,12.62
2023-05-10T01:42:16.006Z,12.62
2023-05-10T01:43:15.973Z,12.49
2023-05-10T01:44:15.894Z,12.58
2023-05-10T01:45:15.865Z,12.66
2023-05-10T01:46:15.856Z,12.58
2023-05-10T01:47:15.815Z,12.49
2023-05-10T01:48:15.818Z,12.55
2023-05-10T01:49:15.764Z,12.55
2023-05-10T01:50:15.961Z,12.59
2023-05-10T01:51:15.711Z,12.67
2023-05-10T01:52:15.684Z,12.67
2023-05-10T01:53:15.661Z,12.59
2023-05-10T01:54:15.659Z,12.54
2023-05-10T01:55:15.632Z,12.66
2023-05-10T01:56:15.575Z,12.59
2023-05-10T01:57:15.551Z,12.59
2023-05-10T01:58:15.544Z,12.62
2023-05-10T01:59:15.509Z,12.67
2023-05-10T02:00:15.770Z,12.54
2023-05-10T02:01:15.589Z,12.59
2023-05-10T02:02:15.436Z,12.66
2023-05-10T02:03:15.461Z,12.62
2023-05-10T02:04:15.374Z,12.66
2023-05-10T02:05:15.343Z,12.61
2023-05-10T02:06:15.317Z,12.62
2023-05-10T02:07:15.302Z,12.66
2023-05-10T02:08:15.265Z,12.69
2023-05-10T02:09:15.244Z,12.61
2023-05-10T02:10:15.501Z,12.59
2023-05-10T02:11:15.195Z,12.66
2023-05-10T02:12:15.169Z,12.67
2023-05-10T02:13:15.164Z,12.67
2023-05-10T02:14:15.129Z,12.62
2023-05-10T02:15:15.084Z,12.62
2023-05-10T02:16:15.071Z,12.62
2023-05-10T02:17:15.046Z,12.51
2023-05-10T02:18:15.014Z,12.56
2023-05-10T02:19:14.981Z,12.54
2023-05-10T02:20:15.177Z,12.49
2023-05-10T02:21:14.929Z,12.62
2023-05-10T02:22:14.900Z,12.58
2023-05-10T02:23:14.894Z,12.54
2023-05-10T02:24:14.855Z,12.58
2023-05-10T02:25:14.833Z,12.55
2023-05-10T02:26:14.798Z,12.52
2023-05-10T02:27:14.774Z,12.49
2023-05-10T02:28:14.764Z,12.44
2023-05-10T02:29:14.720Z,12.48
2023-05-10T02:30:14.888Z,12.46
2023-05-10T02:31:14.669Z,12.44
2023-05-10T02:32:14.714Z,12.44
2023-05-10T02:33:14.616Z,12.46
2023-05-10T02:34:14.590Z,12.43
2023-05-10T02:35:14.563Z,12.41
2023-05-10T02:36:14.538Z,12.43
2023-05-10T02:37:14.511Z,12.49
2023-05-10T02:38:14.494Z,12.52
2023-05-10T02:39:14.479Z,12.49
2023-05-10T02:40:14.507Z,12.44
2023-05-10T02:41:14.412Z,12.52
2023-05-10T02:42:14.387Z,12.48
2023-05-10T02:43:14.363Z,12.51
2023-05-10T02:44:14.337Z,12.43
2023-05-10T02:45:14.303Z,12.46
2023-05-10T02:46:14.368Z,12.48
2023-05-10T02:47:14.255Z,12.38
2023-05-10T02:48:14.258Z,12.46
2023-05-10T02:49:14.200Z,12.43
2023-05-10T02:50:14.332Z,12.43
2023-05-10T02:51:14.153Z,12.52
2023-05-10T02:52:14.123Z,12.44
2023-05-10T02:53:14.097Z,12.43
2023-05-10T02:54:14.069Z,12.46
2023-05-10T02:55:14.047Z,12.43
2023-05-10T02:56:14.019Z,12.38
2023-05-10T02:57:13.996Z,12.41
2023-05-10T02:58:13.966Z,12.41
2023-05-10T02:59:13.943Z,12.40
2023-05-10T03:00:14.043Z,12.43
2023-05-10T03:01:13.926Z,12.52
2023-05-10T03:02:13.901Z,12.38
2023-05-10T03:03:13.838Z,12.40
2023-05-10T03:04:13.821Z,12.52
2023-05-10T03:05:13.787Z,12.49
2023-05-10T03:06:13.759Z,12.43
2023-05-10T03:07:13.743Z,12.40
2023-05-10T03:08:13.704Z,12.43
2023-05-10T03:09:13.680Z,12.37
2023-05-10T03:10:13.697Z,12.43
2023-05-10T03:11:13.626Z,12.48
2023-05-10T03:12:13.606Z,12.48
2023-05-10T03:13:13.691Z,12.41
2023-05-10T03:14:13.553Z,12.54
2023-05-10T03:15:13.524Z,12.54
2023-05-10T03:16:13.542Z,12.54
2023-05-10T03:17:13.472Z,12.55
2023-05-10T03:18:13.470Z,12.55
2023-05-10T03:19:13.421Z,12.49
2023-05-10T03:20:13.446Z,12.55
2023-05-10T03:21:13.377Z,12.44
2023-05-10T03:22:13.381Z,12.41
2023-05-10T03:23:13.318Z,12.54
2023-05-10T03:24:13.315Z,12.46
2023-05-10T03:25:13.293Z,12.56
2023-05-10T03:26:13.238Z,12.55
2023-05-10T03:27:13.211Z,12.44
2023-05-10T03:28:13.191Z,12.52
2023-05-10T03:29:13.157Z,12.52
2023-05-10T03:30:13.141Z,12.48
2023-05-10T03:31:13.130Z,12.48
2023-05-10T03:32:13.083Z,12.43
2023-05-10T03:33:13.068Z,12.40
2023-05-10T03:34:13.048Z,12.55
2023-05-10T03:35:13.011Z,12.44
2023-05-10T03:36:12.977Z,12.43
2023-05-10T03:37:12.952Z,12.41
2023-05-10T03:38:12.926Z,12.51
2023-05-10T03:39:12.902Z,12.44
2023-05-10T03:40:12.896Z,12.46
2023-05-10T03:41:12.854Z,12.43
2023-05-10T03:42:12.904Z,12.38
2023-05-10T03:43:12.797Z,12.44
2023-05-10T03:44:12.770Z,12.49
2023-05-10T03:45:12.744Z,12.46
2023-05-10T03:46:12.748Z,12.43
2023-05-10T03:47:12.688Z,12.43
2023-05-10T03:48:12.707Z,12.44
2023-05-10T03:49:12.640Z,12.44
2023-05-10T03:50:12.644Z,12.46
2023-05-10T03:51:12.591Z,12.41
2023-05-10T03:52:12.564Z,12.43
2023-05-10T03:53:12.537Z,12.40
2023-05-10T03:54:12.520Z,12.33
2023-05-10T03:55:12.486Z,12.41
2023-05-10T03:56:12.457Z,12.33
2023-05-10T03:57:12.432Z,12.30
2023-05-10T03:58:12.406Z,12.34
2023-05-10T03:59:12.379Z,12.29
2023-05-10T04:00:12.356Z,12.25
2023-05-10T04:01:12.327Z,12.37
2023-05-10T04:02:12.324Z,12.29
2023-05-10T04:03:12.346Z,12.29
2023-05-10T04:04:12.295Z,12.37
2023-05-10T04:05:12.222Z,12.29
2023-05-10T04:06:12.266Z,12.36
2023-05-10T04:07:12.174Z,12.37
2023-05-10T04:08:12.148Z,12.43
2023-05-10T04:09:12.119Z,12.43
2023-05-10T04:10:12.100Z,12.34
2023-05-10T04:11:12.073Z,12.23
2023-05-10T04:12:12.043Z,12.36
2023-05-10T04:13:12.031Z,12.31
2023-05-10T04:14:11.993Z,12.43
2023-05-10T04:15:11.963Z,12.41
2023-05-10T04:16:11.963Z,12.44
2023-05-10T04:17:12.008Z,12.49
2023-05-10T04:18:11.954Z,12.48
2023-05-10T04:19:11.865Z,12.46
2023-05-10T04:20:11.835Z,12.51
2023-05-10T04:21:11.812Z,12.58
2023-05-10T04:22:11.807Z,12.61
2023-05-10T04:23:11.757Z,12.54
2023-05-10T04:24:12.702Z,12.48
2023-05-10T04:25:11.703Z,12.43
2023-05-10T04:26:11.680Z,12.48
2023-05-10T04:27:11.654Z,12.44
2023-05-10T04:28:11.628Z,12.46
2023-05-10T04:29:11.603Z,12.44
2023-05-10T04:30:11.596Z,12.41
2023-05-10T04:31:11.595Z,12.46
2023-05-10T04:32:11.524Z,12.43
2023-05-10T04:33:11.505Z,12.41
2023-05-10T04:34:11.471Z,12.51
2023-05-10T04:35:11.456Z,12.40
2023-05-10T04:36:11.420Z,12.46
2023-05-10T04:37:11.405Z,12.43
2023-05-10T04:38:11.388Z,12.48
2023-05-10T04:39:11.337Z,12.41
2023-05-10T04:40:11.324Z,12.46
2023-05-10T04:41:11.288Z,12.44
2023-05-10T04:42:11.262Z,12.46
2023-05-10T04:43:11.239Z,12.44
2023-05-10T04:44:11.218Z,12.48
2023-05-10T04:45:11.187Z,12.52
2023-05-10T04:46:11.275Z,12.49
2023-05-10T04:47:12.696Z,12.56
2023-05-10T04:48:11.110Z,12.55
2023-05-10T04:49:11.082Z,12.52
2023-05-10T04:50:11.058Z,12.41
2023-05-10T04:51:11.041Z,12.44
2023-05-10T04:52:11.001Z,12.40
2023-05-10T04:53:10.998Z,12.41
2023-05-10T04:54:10.975Z,12.41
2023-05-10T04:55:11.086Z,12.52
2023-05-10T04:56:10.909Z,12.48
2023-05-10T04:57:10.873Z,12.44
2023-05-10T04:58:10.849Z,12.43
2023-05-10T04:59:10.820Z,12.43
2023-05-10T05:00:10.801Z,12.41
2023-05-10T05:01:10.831Z,12.30
2023-05-10T05:02:10.858Z,12.33
2023-05-10T05:03:10.815Z,12.26
2023-05-10T05:04:10.705Z,12.34
2023-05-10T05:05:10.665Z,12.41
2023-05-10T05:06:10.642Z,12.44
2023-05-10T05:07:10.616Z,12.31
2023-05-10T05:08:10.599Z,12.25
2023-05-10T05:09:10.565Z,12.31
2023-05-10T05:10:10.567Z,12.29
2023-05-10T05:11:10.511Z,12.41
2023-05-10T05:12:10.486Z,12.41
2023-05-10T05:13:10.495Z,12.51
2023-05-10T05:14:10.431Z,12.40
2023-05-10T05:15:10.407Z,12.41
2023-05-10T05:16:10.414Z,12.38
2023-05-10T05:17:10.355Z,12.41
2023-05-10T05:18:10.391Z,12.41
2023-05-10T05:19:10.307Z,12.51
2023-05-10T05:20:10.279Z,12.41
2023-05-10T05:21:10.250Z,12.55
2023-05-10T05:22:10.227Z,12.63
2023-05-10T05:23:10.204Z,12.61
2023-05-10T05:24:10.178Z,12.73
2023-05-10T05:25:10.152Z,12.67
2023-05-10T05:26:10.156Z,12.73
2023-05-10T05:27:10.092Z,12.69
2023-05-10T05:28:10.074Z,12.69
2023-05-10T05:29:10.050Z,12.70
2023-05-10T05:30:10.035Z,12.66
2023-05-10T05:31:10.176Z,12.70
2023-05-10T05:32:10.002Z,12.69
2023-05-10T05:33:10.000Z,12.67
2023-05-10T05:34:09.925Z,12.71
2023-05-10T05:35:09.940Z,12.70
2023-05-10T05:36:09.866Z,12.71
2023-05-10T05:37:09.837Z,12.73
2023-05-10T05:38:09.814Z,12.79
2023-05-10T05:39:09.785Z,12.74
2023-05-10T05:40:09.911Z,12.73
2023-05-10T05:41:09.733Z,12.73
2023-05-10T05:42:09.724Z,12.73
2023-05-10T05:43:09.682Z,12.73
2023-05-10T05:44:09.657Z,12.69
2023-05-10T05:45:09.628Z,12.66
2023-05-10T05:46:09.646Z,12.61
2023-05-10T05:47:09.582Z,12.63
2023-05-10T05:48:09.573Z,12.66
2023-05-10T05:49:09.526Z,12.69
2023-05-10T05:50:09.502Z,12.63
2023-05-10T05:51:09.474Z,12.61
2023-05-10T05:52:09.451Z,12.70
2023-05-10T05:53:09.426Z,12.70
2023-05-10T05:54:09.410Z,12.79
2023-05-10T05:55:09.369Z,12.74
2023-05-10T05:56:09.351Z,12.81
2023-05-10T05:57:09.351Z,12.77
2023-05-10T05:58:09.319Z,12.74
2023-05-10T05:59:09.268Z,12.69
2023-05-10T06:00:09.285Z,12.67
2023-05-10T06:01:09.220Z,12.59
2023-05-10T06:02:09.235Z,12.73
2023-05-10T06:03:09.307Z,12.87
2023-05-10T06:04:09.198Z,12.77
2023-05-10T06:05:09.118Z,12.73
2023-05-10T06:06:09.093Z,12.70
2023-05-10T06:07:09.066Z,12.74
2023-05-10T06:08:09.037Z,12.88
2023-05-10T06:09:09.013Z,12.88
2023-05-10T06:10:08.992Z,12.95
2023-05-10T06:11:08.964Z,12.94
2023-05-10T06:12:08.946Z,13.01
2023-05-10T06:13:08.996Z,13.06
2023-05-10T06:14:08.960Z,12.99
2023-05-10T06:15:08.859Z,12.92
2023-05-10T06:16:08.873Z,12.94
2023-05-10T06:17:08.814Z,13.04
2023-05-10T06:18:08.814Z,12.79
2023-05-10T06:19:08.756Z,12.77
2023-05-10T06:20:08.733Z,12.88
2023-05-10T06:21:08.702Z,12.94
2023-05-10T06:22:08.689Z,12.88
2023-05-10T06:23:08.654Z,12.94
2023-05-10T06:24:08.635Z,12.85
2023-05-10T06:25:08.603Z,12.77
2023-05-10T06:26:08.578Z,12.89
2023-05-10T06:27:08.554Z,13.03
2023-05-10T06:28:08.529Z,12.91
2023-05-10T06:29:08.502Z,13.10
2023-05-10T06:30:13.064Z,12.84
2023-05-10T06:31:08.539Z,12.67
2023-05-10T06:32:08.430Z,12.58
2023-05-10T06:33:08.484Z,12.49
2023-05-10T06:34:08.370Z,12.54
2023-05-10T06:35:08.349Z,12.44
2023-05-10T06:36:08.320Z,12.43
2023-05-10T06:37:08.297Z,12.43
2023-05-10T06:38:08.281Z,12.43
2023-05-10T06:39:08.242Z,12.29
2023-05-10T06:40:08.223Z,12.37
2023-05-10T06:41:08.197Z,12.30
2023-05-10T06:42:08.167Z,12.13
2023-05-10T06:43:08.140Z,12.19
2023-05-10T06:44:08.120Z,12.16
2023-05-10T06:45:08.095Z,12.21
2023-05-10T06:46:08.146Z,12.18
2023-05-10T06:47:08.034Z,12.16
2023-05-10T06:48:08.037Z,12.21
2023-05-10T06:49:07.987Z,12.15
2023-05-10T06:50:07.960Z,12.13
2023-05-10T06:51:07.932Z,12.11
2023-05-10T06:52:07.907Z,12.13
2023-05-10T06:53:07.878Z,12.13
2023-05-10T06:54:07.854Z,12.19
2023-05-10T06:55:07.837Z,12.18
2023-05-10T06:56:07.802Z,12.22
2023-05-10T06:57:16.084Z,12.31
2023-05-10T06:58:07.749Z,12.29
2023-05-10T06:59:07.899Z,12.19
2023-05-10T07:00:07.813Z,12.36
2023-05-10T07:01:07.939Z,12.37
2023-05-10T07:02:07.767Z,12.15
2023-05-10T07:03:07.646Z,12.23
2023-05-10T07:04:07.596Z,12.29
2023-05-10T07:05:07.585Z,12.38
2023-05-10T07:06:08.603Z,12.44
2023-05-10T07:07:07.518Z,12.56
2023-05-10T07:08:07.507Z,12.51
2023-05-10T07:09:07.465Z,12.43
2023-05-10T07:10:07.439Z,12.43
2023-05-10T07:11:07.412Z,12.41
2023-05-10T07:12:09.584Z,12.43
2023-05-10T07:13:07.411Z,12.46
2023-05-10T07:14:07.341Z,12.61
2023-05-10T07:15:07.321Z,12.58
2023-05-10T07:16:07.348Z,12.55
2023-05-10T07:17:07.290Z,12.40
2023-05-10T07:18:07.472Z,12.44
2023-05-10T07:19:07.209Z,12.49
2023-05-10T07:20:07.176Z,12.46
2023-05-10T07:21:07.242Z,12.66
2023-05-10T07:22:07.128Z,12.62
2023-05-10T07:23:07.102Z,12.63
2023-05-10T07:24:07.078Z,12.56
2023-05-10T07:25:07.052Z,12.54
2023-05-10T07:26:07.023Z,12.76
2023-05-10T07:27:07.001Z,12.80
2023-05-10T07:28:06.971Z,13.12
2023-05-10T07:29:06.944Z,13.04
2023-05-10T07:30:06.934Z,12.96
2023-05-10T07:31:06.986Z,12.91
2023-05-10T07:32:06.949Z,12.81
2023-05-10T07:33:06.966Z,12.70
2023-05-10T07:34:06.840Z,12.73
2023-05-10T07:35:06.790Z,12.76
2023-05-10T07:36:06.765Z,12.88
2023-05-10T07:37:06.738Z,12.77
2023-05-10T07:38:06.721Z,12.73
2023-05-10T07:39:06.688Z,12.79
2023-05-10T07:40:06.662Z,12.67
2023-05-10T07:41:06.647Z,12.73
2023-05-10T07:42:06.646Z,12.71
2023-05-10T07:43:06.591Z,12.92
2023-05-10T07:44:06.564Z,13.03
2023-05-10T07:45:06.535Z,13.10
2023-05-10T07:46:06.566Z,13.16
2023-05-10T07:47:06.485Z,12.95
2023-05-10T07:48:06.505Z,12.77
2023-05-10T07:49:06.437Z,12.92
2023-05-10T07:50:06.516Z,12.96
2023-05-10T07:51:06.379Z,13.06
2023-05-10T07:52:06.356Z,13.04
2023-05-10T07:53:06.330Z,13.01
2023-05-10T07:54:06.306Z,13.04
2023-05-10T07:55:06.273Z,12.91
2023-05-10T07:56:06.257Z,12.80
2023-05-10T07:57:06.227Z,12.94
2023-05-10T07:58:06.200Z,12.91
2023-05-10T07:59:06.185Z,12.98
2023-05-10T08:00:06.153Z,13.21
2023-05-10T08:01:06.124Z,13.24
2023-05-10T08:02:06.152Z,13.43
2023-05-10T08:03:06.167Z,13.32
2023-05-10T08:04:06.135Z,13.22
2023-05-10T08:05:06.030Z,13.38
2023-05-10T08:06:06.013Z,13.41
2023-05-10T08:07:05.986Z,13.16
2023-05-10T08:08:05.950Z,13.12
2023-05-10T08:09:05.937Z,13.17
2023-05-10T08:10:05.899Z,13.27
2023-05-10T08:11:05.875Z,13.17
2023-05-10T08:12:05.844Z,12.99
2023-05-10T08:13:05.819Z,12.85
2023-05-10T08:14:05.796Z,12.99
2023-05-10T08:15:05.774Z,13.03
2023-05-10T08:16:05.772Z,13.22
2023-05-10T08:17:05.726Z,13.38
2023-05-10T08:18:05.706Z,13.69
2023-05-10T08:19:05.866Z,13.76
2023-05-10T08:20:05.642Z,13.73
2023-05-10T08:21:05.613Z,13.61
2023-05-10T08:22:05.652Z,13.83
2023-05-10T08:23:05.565Z,13.81
2023-05-10T08:24:05.539Z,14.01
2023-05-10T08:25:05.518Z,13.93
2023-05-10T08:26:05.505Z,13.99
2023-05-10T08:27:05.468Z,14.13
2023-05-10T08:28:05.446Z,14.46
2023-05-10T08:29:05.428Z,14.41
2023-05-10T08:30:05.397Z,14.13
2023-05-10T08:31:05.408Z,13.79
2023-05-10T08:32:05.341Z,13.65
2023-05-10T08:33:05.365Z,13.75
2023-05-10T08:34:05.305Z,13.66
2023-05-10T08:35:05.289Z,13.50
2023-05-10T08:36:05.241Z,13.29
2023-05-10T08:37:05.226Z,13.38
2023-05-10T08:38:05.231Z,13.28
2023-05-10T08:39:07.696Z,13.38
2023-05-10T08:40:05.149Z,13.43
2023-05-10T08:41:05.134Z,13.25
2023-05-10T08:42:05.093Z,13.28
2023-05-10T08:43:05.073Z,13.47
2023-05-10T08:44:05.044Z,13.44
2023-05-10T08:45:05.021Z,13.27
2023-05-10T08:46:05.020Z,13.13
2023-05-10T08:47:05.119Z,13.21
2023-05-10T08:48:04.991Z,13.36
2023-05-10T08:49:04.923Z,13.54
2023-05-10T08:50:04.896Z,13.55
2023-05-10T08:51:04.881Z,13.53
2023-05-10T08:52:04.904Z,13.54
2023-05-10T08:53:04.825Z,13.63
2023-05-10T08:54:04.820Z,13.75
2023-05-10T08:55:04.777Z,13.73
2023-05-10T08:56:04.771Z,13.48
2023-05-10T08:57:04.746Z,13.54
2023-05-10T08:58:04.707Z,13.50
2023-05-10T08:59:04.680Z,13.41
2023-05-10T09:00:04.652Z,13.38
2023-05-10T09:01:04.685Z,13.46
2023-05-10T09:02:04.603Z,13.43
2023-05-10T09:03:04.622Z,13.29
2023-05-10T09:04:04.608Z,13.39
2023-05-10T09:05:04.708Z,13.54
2023-05-10T09:06:04.505Z,13.48
2023-05-10T09:07:04.483Z,13.54
2023-05-10T09:08:04.454Z,13.27
2023-05-10T09:09:04.428Z,13.25
2023-05-10T09:10:04.432Z,13.32
2023-05-10T09:11:04.379Z,13.36
2023-05-10T09:12:04.354Z,13.36
2023-05-10T09:13:04.330Z,13.50
2023-05-10T09:14:04.303Z,13.51
2023-05-10T09:15:04.282Z,13.51
2023-05-10T09:16:19.872Z,13.36
2023-05-10T09:17:04.273Z,13.28
2023-05-10T09:18:04.247Z,13.29
2023-05-10T09:19:04.232Z,13.46
2023-05-10T09:20:04.152Z,13.53
2023-05-10T09:21:04.126Z,13.54
2023-05-10T09:22:04.107Z,13.47
2023-05-10T09:23:04.084Z,13.54
2023-05-10T09:24:04.053Z,13.44
2023-05-10T09:25:04.025Z,13.50
2023-05-10T09:26:04.026Z,13.39
2023-05-10T09:27:03.982Z,13.53
2023-05-10T09:28:03.978Z,13.68
2023-05-10T09:29:03.950Z,13.76
2023-05-10T09:30:03.903Z,13.84
2023-05-10T09:31:03.948Z,13.86
2023-05-10T09:32:03.861Z,13.84
2023-05-10T09:33:03.847Z,13.73
2023-05-10T09:34:03.798Z,13.86
2023-05-10T09:35:03.774Z,13.83
2023-05-10T09:36:03.748Z,13.87
2023-05-10T09:37:03.732Z,13.91
2023-05-10T09:38:03.701Z,13.93
2023-05-10T09:39:03.673Z,13.87
2023-05-10T09:40:03.649Z,13.75
2023-05-10T09:41:03.638Z,13.68
2023-05-10T09:42:03.624Z,13.61
2023-05-10T09:43:03.581Z,13.54
2023-05-10T09:44:03.554Z,13.38
2023-05-10T09:45:03.520Z,13.31
2023-05-10T09:46:03.525Z,13.39
2023-05-10T09:47:03.475Z,13.44
2023-05-10T09:48:03.519Z,13.51
2023-05-10T09:49:03.421Z,13.43
2023-05-10T09:50:03.402Z,13.22
2023-05-10T09:51:03.372Z,13.19
2023-05-10T09:52:03.346Z,13.14
2023-05-10T09:53:03.320Z,13.19
2023-05-10T09:54:03.300Z,13.19
2023-05-10T09:55:03.273Z,13.24
2023-05-10T09:56:03.247Z,13.39
2023-05-10T09:57:03.216Z,13.57
2023-05-10T09:58:03.234Z,13.57
2023-05-10T09:59:03.169Z,13.62
2023-05-10T10:00:03.144Z,13.73
2023-05-10T10:01:03.160Z,13.94
2023-05-10T10:02:03.129Z,13.93
2023-05-10T10:03:03.112Z,13.93
2023-05-10T10:04:03.045Z,13.69
2023-05-10T10:05:03.063Z,13.96
2023-05-10T10:06:02.996Z,13.99
2023-05-10T10:07:02.966Z,14.05
2023-05-10T10:08:02.949Z,14.05
2023-05-10T10:09:02.917Z,13.91
2023-05-10T10:10:02.896Z,13.98
2023-05-10T10:11:02.883Z,14.21
2023-05-10T10:12:02.847Z,14.31
2023-05-10T10:13:02.820Z,14.20
2023-05-10T10:14:02.822Z,13.93
2023-05-10T10:15:02.773Z,14.11
2023-05-10T10:16:02.907Z,14.36
2023-05-10T10:18:02.708Z,14.20
2023-05-10T10:19:02.811Z,14.23
2023-05-10T10:20:02.645Z,14.46
2023-05-10T10:21:02.623Z,14.64
2023-05-10T10:22:02.595Z,14.64
2023-05-10T10:23:02.574Z,14.56
2023-05-10T10:24:02.548Z,14.31
2023-05-10T10:25:02.524Z,14.30
2023-05-10T10:26:02.503Z,14.26
2023-05-10T10:27:02.482Z,14.17
2023-05-10T10:28:02.453Z,14.21
2023-05-10T10:29:02.427Z,14.29
2023-05-10T10:30:02.419Z,14.48
2023-05-10T10:31:02.409Z,14.24
2023-05-10T10:32:02.355Z,14.13
2023-05-10T10:33:05.613Z,14.02
2023-05-10T10:34:02.304Z,14.23
2023-05-10T10:35:02.309Z,14.20
2023-05-10T10:36:02.257Z,14.30
2023-05-10T10:37:02.231Z,14.26
2023-05-10T10:38:02.209Z,14.16
2023-05-10T10:39:02.182Z,14.21
2023-05-10T10:40:02.168Z,14.24
2023-05-10T10:41:02.144Z,14.39
2023-05-10T10:42:02.126Z,14.26
2023-05-10T10:43:02.107Z,14.08
2023-05-10T10:44:02.068Z,14.16
2023-05-10T10:45:02.036Z,14.34
2023-05-10T10:46:02.037Z,14.46
2023-05-10T10:47:02.108Z,14.54
2023-05-10T10:48:02.056Z,14.64
2023-05-10T10:49:01.947Z,15.16
2023-05-10T10:50:01.924Z,15.41
2023-05-10T10:51:01.900Z,15.41
2023-05-10T10:52:01.875Z,15.78
2023-05-10T10:53:01.863Z,15.48
2023-05-10T10:54:01.822Z,15.81
2023-05-10T10:55:01.797Z,16.01
2023-05-10T10:56:01.774Z,16.01
2023-05-10T10:57:01.749Z,16.25
2023-05-10T10:58:02.072Z,15.93
2023-05-10T10:59:01.702Z,15.85
2023-05-10T11:00:01.676Z,15.91
2023-05-10T11:01:01.689Z,16.04
2023-05-10T11:02:01.684Z,15.93
2023-05-10T11:03:01.634Z,15.77
2023-05-10T11:04:01.617Z,15.74
2023-05-10T11:05:01.559Z,15.37
2023-05-10T11:06:01.536Z,15.20
2023-05-10T11:07:01.513Z,14.44
2023-05-10T11:08:01.500Z,14.30
2023-05-10T11:09:01.465Z,14.08
2023-05-10T11:10:01.442Z,14.17
2023-05-10T11:11:01.434Z,14.19
2023-05-10T11:12:01.413Z,14.26
2023-05-10T11:13:01.372Z,14.29
2023-05-10T11:14:01.346Z,14.24
2023-05-10T11:15:01.321Z,14.11
2023-05-10T11:16:01.297Z,14.11
2023-05-10T11:17:01.448Z,14.20
2023-05-10T11:18:01.288Z,14.23
2023-05-10T11:19:01.254Z,14.09
2023-05-10T11:20:01.197Z,14.06
2023-05-10T11:21:01.176Z,14.01
2023-05-10T11:22:01.150Z,13.93
2023-05-10T11:23:01.161Z,14.09
2023-05-10T11:24:01.122Z,13.98
2023-05-10T11:25:01.080Z,14.06
2023-05-10T11:26:01.058Z,14.17
2023-05-10T11:27:01.034Z,14.13
2023-05-10T11:28:01.004Z,14.20
2023-05-10T11:29:00.984Z,14.19
2023-05-10T11:30:01.840Z,14.30
2023-05-10T11:31:00.958Z,14.52
2023-05-10T11:32:00.928Z,14.45
2023-05-10T11:33:00.914Z,14.31
2023-05-10T11:34:00.906Z,14.52
2023-05-10T11:35:00.834Z,14.79
2023-05-10T11:36:00.813Z,14.95
2023-05-10T11:37:00.803Z,14.74
2023-05-10T11:38:00.771Z,14.64
2023-05-10T11:39:00.769Z,14.57
2023-05-10T11:40:00.715Z,14.49
2023-05-10T11:41:00.688Z,14.61
2023-05-10T11:42:00.689Z,14.74
2023-05-10T11:43:00.643Z,14.72
2023-05-10T11:44:00.616Z,14.83
2023-05-10T11:45:00.587Z,14.86
2023-05-10T11:46:00.654Z,14.69
2023-05-10T11:47:00.546Z,14.61
2023-05-10T11:48:00.573Z,14.57
2023-05-10T11:49:00.497Z,14.63
2023-05-10T11:50:00.491Z,14.67
2023-05-10T11:51:00.446Z,14.69
2023-05-10T11:52:00.422Z,14.64
2023-05-10T11:53:00.402Z,14.36
2023-05-10T11:54:00.372Z,14.41
2023-05-10T11:55:00.352Z,14.42
2023-05-10T11:56:00.325Z,14.46
2023-05-10T11:57:00.298Z,14.53
2023-05-10T11:58:00.279Z,14.52
2023-05-10T11:59:00.255Z,14.45
2023-05-10T12:00:00.226Z,14.52
2023-05-10T12:01:00.202Z,14.56
2023-05-10T12:02:00.188Z,14.59
2023-05-10T12:03:00.284Z,14.74
2023-05-10T12:04:00.388Z,14.93
2023-05-10T12:05:00.219Z,14.85
2023-05-10T12:06:00.124Z,14.91
2023-05-10T12:07:00.059Z,15.03
2023-05-10T12:08:00.041Z,15.23
2023-05-10T12:09:00.002Z,15.22
2023-05-10T12:09:59.976Z,15.04
2023-05-10T12:10:59.954Z,15.04
2023-05-10T12:11:59.944Z,15.18
2023-05-10T12:12:59.908Z,15.23
2023-05-10T12:13:59.893Z,15.38
2023-05-10T12:14:59.860Z,15.77
2023-05-10T12:15:59.899Z,15.92
2023-05-10T12:16:59.824Z,15.92
2023-05-10T12:17:59.840Z,15.74
2023-05-10T12:18:59.796Z,15.80
2023-05-10T12:19:59.739Z,15.74
2023-05-10T12:20:59.716Z,15.92
2023-05-10T12:21:59.713Z,15.99
2023-05-10T12:23:00.702Z,16.18
2023-05-10T12:23:59.644Z,16.32
2023-05-10T12:24:59.619Z,16.27
2023-05-10T12:25:59.606Z,16.27
2023-05-10T12:26:59.571Z,16.17
2023-05-10T12:27:59.553Z,16.27
2023-05-10T12:28:59.525Z,16.52
2023-05-10T12:29:59.502Z,16.63
2023-05-10T12:30:59.479Z,16.87
2023-05-10T12:31:59.508Z,16.69
2023-05-10T12:32:59.469Z,16.69
2023-05-10T12:33:59.410Z,16.96
2023-05-10T12:34:59.386Z,17.15
2023-05-10T12:35:59.361Z,17.22
2023-05-10T12:36:59.343Z,17.07
2023-05-10T12:37:59.339Z,17.00
2023-05-10T12:38:59.294Z,17.12
2023-05-10T12:39:59.275Z,17.02
2023-05-10T12:40:59.357Z,16.92
2023-05-10T12:41:59.231Z,17.03
2023-05-10T12:42:59.243Z,16.90
2023-05-10T12:43:59.180Z,16.92
2023-05-10T12:44:59.155Z,16.69
2023-05-10T12:45:59.182Z,16.48
2023-05-10T12:46:59.111Z,16.37
2023-05-10T12:47:59.108Z,16.13
2023-05-10T12:49:08.539Z,15.93
2023-05-10T12:49:59.042Z,15.89
2023-05-10T12:50:59.021Z,15.76
2023-05-10T12:51:59.013Z,15.64
2023-05-10T12:52:58.973Z,15.70